sensor_id;sensor_type;location;lat;lon;timestamp;P1;durP1;ratioP1;P2;durP2;ratioP2
8632;SDS011;4354;49.832;10.746;2023-02-26T00:01:10;4.83;;;2.33;;
8632;SDS011;4354;49.832;10.746;2023-02-26T00:03:39;4.00;;;1.53;;
8632;SDS011;4354;49.832;10.746;2023-02-26T00:06:06;4.67;;;1.63;;
8632;SDS011;4354;49.832;10.746;2023-02-26T00:08:33;3.33;;;1.47;;
8632;SDS011;4354;49.832;10.746;2023-02-26T00:11:00;2.77;;;1.37;;
8632;SDS011;4354;49.832;10.746;2023-02-26T00:13:31;4.33;;;1.67;;
8632;SDS011;4354;49.832;10.746;2023-02-26T00:15:59;3.80;;;1.50;;
8632;SDS011;4354;49.832;10.746;2023-02-26T00:18:29;4.60;;;1.50;;
8632;SDS011;4354;49.832;10.746;2023-02-26T00:20:56;5.50;;;1.93;;
8632;SDS011;4354;49.832;10.746;2023-02-26T00:23:23;4.30;;;1.60;;
8632;SDS011;4354;49.832;10.746;2023-02-26T00:25:50;4.93;;;1.73;;
8632;SDS011;4354;49.832;10.746;2023-02-26T00:28:17;4.77;;;1.90;;
8632;SDS011;4354;49.832;10.746;2023-02-26T00:30:44;4.23;;;1.97;;
8632;SDS011;4354;49.832;10.746;2023-02-26T00:33:11;3.13;;;1.27;;
8632;SDS011;4354;49.832;10.746;2023-02-26T00:35:38;5.77;;;1.90;;
8632;SDS011;4354;49.832;10.746;2023-02-26T00:38:09;4.27;;;1.50;;
8632;SDS011;4354;49.832;10.746;2023-02-26T00:43:15;2.67;;;1.33;;
8632;SDS011;4354;49.832;10.746;2023-02-26T00:45:53;4.90;;;1.70;;
8632;SDS011;4354;49.832;10.746;2023-02-26T00:56:38;3.77;;;1.20;;
8632;SDS011;4354;49.832;10.746;2023-02-26T00:59:05;3.87;;;1.73;;
8632;SDS011;4354;49.832;10.746;2023-02-26T01:01:31;2.07;;;1.37;;
8632;SDS011;4354;49.832;10.746;2023-02-26T01:03:58;1.80;;;1.27;;
8632;SDS011;4354;49.832;10.746;2023-02-26T01:06:30;1.60;;;1.30;;
8632;SDS011;4354;49.832;10.746;2023-02-26T01:09:04;5.27;;;1.43;;
8632;SDS011;4354;49.832;10.746;2023-02-26T01:11:39;3.40;;;1.50;;
8632;SDS011;4354;49.832;10.746;2023-02-26T01:14:06;2.13;;;1.37;;
8632;SDS011;4354;49.832;10.746;2023-02-26T01:16:37;3.17;;;1.50;;
8632;SDS011;4354;49.832;10.746;2023-02-26T01:21:53;2.70;;;1.30;;
8632;SDS011;4354;49.832;10.746;2023-02-26T01:24:32;4.53;;;1.53;;
8632;SDS011;4354;49.832;10.746;2023-02-26T01:27:01;3.87;;;1.63;;
8632;SDS011;4354;49.832;10.746;2023-02-26T01:29:27;1.93;;;1.30;;
8632;SDS011;4354;49.832;10.746;2023-02-26T01:31:56;2.80;;;1.20;;
8632;SDS011;4354;49.832;10.746;2023-02-26T01:34:31;3.97;;;1.50;;
8632;SDS011;4354;49.832;10.746;2023-02-26T01:37:06;3.47;;;1.80;;
8632;SDS011;4354;49.832;10.746;2023-02-26T01:39:39;4.07;;;1.50;;
8632;SDS011;4354;49.832;10.746;2023-02-26T01:42:14;4.67;;;1.80;;
8632;SDS011;4354;49.832;10.746;2023-02-26T01:48:02;7.20;;;4.00;;
8632;SDS011;4354;49.832;10.746;2023-02-26T01:50:14;3.70;;;2.10;;
8632;SDS011;4354;49.832;10.746;2023-02-26T01:55:17;4.23;;;2.00;;
8632;SDS011;4354;49.832;10.746;2023-02-26T01:57:46;4.57;;;1.90;;
8632;SDS011;4354;49.832;10.746;2023-02-26T02:00:14;4.70;;;2.07;;
8632;SDS011;4354;49.832;10.746;2023-02-26T02:02:42;3.17;;;1.73;;
8632;SDS011;4354;49.832;10.746;2023-02-26T02:05:14;3.83;;;1.60;;
8632;SDS011;4354;49.832;10.746;2023-02-26T02:07:42;2.67;;;1.40;;
8632;SDS011;4354;49.832;10.746;2023-02-26T02:10:10;2.87;;;1.50;;
8632;SDS011;4354;49.832;10.746;2023-02-26T02:12:43;4.33;;;1.77;;
8632;SDS011;4354;49.832;10.746;2023-02-26T02:15:24;5.27;;;2.10;;
8632;SDS011;4354;49.832;10.746;2023-02-26T02:23:01;5.23;;;2.40;;
8632;SDS011;4354;49.832;10.746;2023-02-26T02:25:35;3.20;;;2.63;;
8632;SDS011;4354;49.832;10.746;2023-02-26T02:31:04;3.57;;;2.40;;
8632;SDS011;4354;49.832;10.746;2023-02-26T02:33:33;3.70;;;2.00;;
8632;SDS011;4354;49.832;10.746;2023-02-26T02:36:07;6.63;;;2.53;;
8632;SDS011;4354;49.832;10.746;2023-02-26T02:38:38;3.73;;;2.40;;
8632;SDS011;4354;49.832;10.746;2023-02-26T02:41:12;6.27;;;2.93;;
8632;SDS011;4354;49.832;10.746;2023-02-26T02:43:40;6.77;;;3.10;;
8632;SDS011;4354;49.832;10.746;2023-02-26T02:46:10;6.77;;;4.10;;
8632;SDS011;4354;49.832;10.746;2023-02-26T02:48:40;5.10;;;3.20;;
8632;SDS011;4354;49.832;10.746;2023-02-26T02:51:10;6.87;;;2.77;;
8632;SDS011;4354;49.832;10.746;2023-02-26T02:53:43;6.43;;;2.50;;
8632;SDS011;4354;49.832;10.746;2023-02-26T02:57:00;3.87;;;1.77;;
8632;SDS011;4354;49.832;10.746;2023-02-26T02:59:05;3.27;;;1.70;;
8632;SDS011;4354;49.832;10.746;2023-02-26T03:01:37;2.67;;;1.50;;
8632;SDS011;4354;49.832;10.746;2023-02-26T03:04:06;4.37;;;1.40;;
8632;SDS011;4354;49.832;10.746;2023-02-26T03:06:34;6.50;;;1.67;;
8632;SDS011;4354;49.832;10.746;2023-02-26T03:09:02;3.53;;;1.33;;
8632;SDS011;4354;49.832;10.746;2023-02-26T03:11:30;3.87;;;1.77;;
8632;SDS011;4354;49.832;10.746;2023-02-26T03:13:57;2.37;;;1.40;;
8632;SDS011;4354;49.832;10.746;2023-02-26T03:16:28;3.50;;;1.60;;
8632;SDS011;4354;49.832;10.746;2023-02-26T03:23:59;2.80;;;1.30;;
8632;SDS011;4354;49.832;10.746;2023-02-26T03:26:31;3.60;;;1.67;;
8632;SDS011;4354;49.832;10.746;2023-02-26T03:31:34;3.80;;;1.53;;
8632;SDS011;4354;49.832;10.746;2023-02-26T03:34:12;2.83;;;1.40;;
8632;SDS011;4354;49.832;10.746;2023-02-26T03:37:03;3.73;;;1.60;;
8632;SDS011;4354;49.832;10.746;2023-02-26T03:39:36;3.07;;;1.50;;
8632;SDS011;4354;49.832;10.746;2023-02-26T03:42:09;3.83;;;1.50;;
8632;SDS011;4354;49.832;10.746;2023-02-26T03:44:46;4.53;;;1.50;;
8632;SDS011;4354;49.832;10.746;2023-02-26T03:47:18;2.50;;;1.50;;
8632;SDS011;4354;49.832;10.746;2023-02-26T03:50:00;2.80;;;1.80;;
8632;SDS011;4354;49.832;10.746;2023-02-26T03:52:33;5.40;;;1.40;;
8632;SDS011;4354;49.832;10.746;2023-02-26T03:55:14;4.83;;;1.60;;
8632;SDS011;4354;49.832;10.746;2023-02-26T03:57:44;2.47;;;1.37;;
8632;SDS011;4354;49.832;10.746;2023-02-26T04:00:12;3.93;;;1.33;;
8632;SDS011;4354;49.832;10.746;2023-02-26T04:02:44;6.57;;;2.03;;
8632;SDS011;4354;49.832;10.746;2023-02-26T04:05:27;3.50;;;1.50;;
8632;SDS011;4354;49.832;10.746;2023-02-26T04:07:57;4.20;;;1.73;;
8632;SDS011;4354;49.832;10.746;2023-02-26T04:10:26;5.33;;;1.70;;
8632;SDS011;4354;49.832;10.746;2023-02-26T04:13:01;3.97;;;1.83;;
8632;SDS011;4354;49.832;10.746;2023-02-26T04:15:28;2.70;;;1.97;;
8632;SDS011;4354;49.832;10.746;2023-02-26T04:17:55;4.90;;;1.60;;
8632;SDS011;4354;49.832;10.746;2023-02-26T04:20:22;5.30;;;1.87;;
8632;SDS011;4354;49.832;10.746;2023-02-26T04:22:49;3.37;;;1.77;;
8632;SDS011;4354;49.832;10.746;2023-02-26T04:25:16;5.20;;;1.70;;
8632;SDS011;4354;49.832;10.746;2023-02-26T04:27:42;3.30;;;1.67;;
8632;SDS011;4354;49.832;10.746;2023-02-26T04:30:09;5.33;;;1.63;;
8632;SDS011;4354;49.832;10.746;2023-02-26T04:32:36;5.80;;;1.80;;
8632;SDS011;4354;49.832;10.746;2023-02-26T04:35:03;4.73;;;1.77;;
8632;SDS011;4354;49.832;10.746;2023-02-26T04:37:30;4.93;;;1.80;;
8632;SDS011;4354;49.832;10.746;2023-02-26T04:39:57;3.23;;;1.50;;
8632;SDS011;4354;49.832;10.746;2023-02-26T04:42:24;3.47;;;1.77;;
8632;SDS011;4354;49.832;10.746;2023-02-26T04:44:50;4.33;;;1.60;;
8632;SDS011;4354;49.832;10.746;2023-02-26T04:47:17;3.53;;;1.47;;
8632;SDS011;4354;49.832;10.746;2023-02-26T04:49:44;8.00;;;1.90;;
8632;SDS011;4354;49.832;10.746;2023-02-26T04:52:10;4.60;;;1.60;;
8632;SDS011;4354;49.832;10.746;2023-02-26T04:54:37;4.00;;;2.00;;
8632;SDS011;4354;49.832;10.746;2023-02-26T04:57:06;4.53;;;1.13;;
8632;SDS011;4354;49.832;10.746;2023-02-26T04:59:32;3.97;;;1.60;;
8632;SDS011;4354;49.832;10.746;2023-02-26T05:01:59;3.10;;;1.50;;
8632;SDS011;4354;49.832;10.746;2023-02-26T05:04:26;3.97;;;1.50;;
8632;SDS011;4354;49.832;10.746;2023-02-26T05:06:53;3.33;;;1.50;;
8632;SDS011;4354;49.832;10.746;2023-02-26T05:09:20;3.50;;;1.43;;
8632;SDS011;4354;49.832;10.746;2023-02-26T05:11:47;5.07;;;1.80;;
8632;SDS011;4354;49.832;10.746;2023-02-26T05:14:15;3.73;;;1.30;;
8632;SDS011;4354;49.832;10.746;2023-02-26T05:16:42;4.57;;;2.00;;
8632;SDS011;4354;49.832;10.746;2023-02-26T05:19:09;2.93;;;1.77;;
8632;SDS011;4354;49.832;10.746;2023-02-26T05:21:36;2.07;;;1.37;;
8632;SDS011;4354;49.832;10.746;2023-02-26T05:24:02;3.23;;;1.33;;
8632;SDS011;4354;49.832;10.746;2023-02-26T05:26:29;3.60;;;1.40;;
8632;SDS011;4354;49.832;10.746;2023-02-26T05:28:56;3.67;;;1.50;;
8632;SDS011;4354;49.832;10.746;2023-02-26T05:31:23;4.83;;;1.30;;
8632;SDS011;4354;49.832;10.746;2023-02-26T05:33:52;1.83;;;1.30;;
8632;SDS011;4354;49.832;10.746;2023-02-26T05:36:19;5.13;;;1.50;;
8632;SDS011;4354;49.832;10.746;2023-02-26T05:38:45;5.13;;;1.53;;
8632;SDS011;4354;49.832;10.746;2023-02-26T05:41:12;3.20;;;1.60;;
8632;SDS011;4354;49.832;10.746;2023-02-26T05:43:39;4.03;;;1.57;;
8632;SDS011;4354;49.832;10.746;2023-02-26T05:46:07;2.80;;;1.60;;
8632;SDS011;4354;49.832;10.746;2023-02-26T05:48:33;2.50;;;1.20;;
8632;SDS011;4354;49.832;10.746;2023-02-26T05:51:00;3.90;;;1.47;;
8632;SDS011;4354;49.832;10.746;2023-02-26T05:53:27;3.33;;;1.60;;
8632;SDS011;4354;49.832;10.746;2023-02-26T05:55:54;2.37;;;1.20;;
8632;SDS011;4354;49.832;10.746;2023-02-26T05:58:21;2.17;;;1.30;;
8632;SDS011;4354;49.832;10.746;2023-02-26T06:00:48;3.07;;;1.20;;
8632;SDS011;4354;49.832;10.746;2023-02-26T06:03:15;4.17;;;1.37;;
8632;SDS011;4354;49.832;10.746;2023-02-26T06:05:42;2.10;;;1.30;;
8632;SDS011;4354;49.832;10.746;2023-02-26T06:08:09;3.93;;;1.40;;
8632;SDS011;4354;49.832;10.746;2023-02-26T06:10:37;3.30;;;1.20;;
8632;SDS011;4354;49.832;10.746;2023-02-26T06:13:04;5.50;;;1.80;;
8632;SDS011;4354;49.832;10.746;2023-02-26T06:15:30;3.27;;;1.37;;
8632;SDS011;4354;49.832;10.746;2023-02-26T06:17:57;3.00;;;1.30;;
8632;SDS011;4354;49.832;10.746;2023-02-26T06:20:24;3.73;;;2.00;;
8632;SDS011;4354;49.832;10.746;2023-02-26T06:22:51;4.23;;;1.43;;
8632;SDS011;4354;49.832;10.746;2023-02-26T06:25:18;3.70;;;1.50;;
8632;SDS011;4354;49.832;10.746;2023-02-26T06:27:45;2.63;;;1.20;;
8632;SDS011;4354;49.832;10.746;2023-02-26T06:30:12;5.03;;;1.30;;
8632;SDS011;4354;49.832;10.746;2023-02-26T06:32:38;1.67;;;1.20;;
8632;SDS011;4354;49.832;10.746;2023-02-26T06:35:05;3.73;;;1.20;;
8632;SDS011;4354;49.832;10.746;2023-02-26T06:37:32;3.80;;;1.40;;
8632;SDS011;4354;49.832;10.746;2023-02-26T06:39:59;3.00;;;1.40;;
8632;SDS011;4354;49.832;10.746;2023-02-26T06:42:26;2.10;;;1.23;;
8632;SDS011;4354;49.832;10.746;2023-02-26T06:44:52;2.63;;;1.30;;
8632;SDS011;4354;49.832;10.746;2023-02-26T06:47:19;2.93;;;1.00;;
8632;SDS011;4354;49.832;10.746;2023-02-26T06:49:46;3.77;;;1.30;;
8632;SDS011;4354;49.832;10.746;2023-02-26T06:52:14;2.33;;;1.10;;
8632;SDS011;4354;49.832;10.746;2023-02-26T06:54:40;3.93;;;1.47;;
8632;SDS011;4354;49.832;10.746;2023-02-26T06:57:07;1.63;;;1.20;;
8632;SDS011;4354;49.832;10.746;2023-02-26T06:59:35;2.23;;;1.50;;
8632;SDS011;4354;49.832;10.746;2023-02-26T07:02:02;2.20;;;1.73;;
8632;SDS011;4354;49.832;10.746;2023-02-26T07:04:28;3.67;;;1.77;;
8632;SDS011;4354;49.832;10.746;2023-02-26T07:06:55;2.47;;;1.23;;
8632;SDS011;4354;49.832;10.746;2023-02-26T07:09:22;5.57;;;2.30;;
8632;SDS011;4354;49.832;10.746;2023-02-26T07:11:49;1.90;;;1.50;;
8632;SDS011;4354;49.832;10.746;2023-02-26T07:14:15;2.17;;;1.40;;
8632;SDS011;4354;49.832;10.746;2023-02-26T07:16:42;2.57;;;1.63;;
8632;SDS011;4354;49.832;10.746;2023-02-26T07:19:10;2.37;;;2.10;;
8632;SDS011;4354;49.832;10.746;2023-02-26T07:21:37;2.67;;;1.73;;
8632;SDS011;4354;49.832;10.746;2023-02-26T07:24:06;5.23;;;2.43;;
8632;SDS011;4354;49.832;10.746;2023-02-26T07:26:33;2.97;;;1.33;;
8632;SDS011;4354;49.832;10.746;2023-02-26T07:29:00;2.60;;;1.17;;
8632;SDS011;4354;49.832;10.746;2023-02-26T07:31:27;2.73;;;1.10;;
8632;SDS011;4354;49.832;10.746;2023-02-26T07:33:54;1.33;;;0.90;;
8632;SDS011;4354;49.832;10.746;2023-02-26T07:36:20;0.93;;;0.83;;
8632;SDS011;4354;49.832;10.746;2023-02-26T07:38:47;2.10;;;0.97;;
8632;SDS011;4354;49.832;10.746;2023-02-26T07:41:14;2.80;;;0.97;;
8632;SDS011;4354;49.832;10.746;2023-02-26T07:43:41;1.70;;;1.37;;
8632;SDS011;4354;49.832;10.746;2023-02-26T07:46:08;2.93;;;1.20;;
8632;SDS011;4354;49.832;10.746;2023-02-26T07:48:35;1.80;;;1.30;;
8632;SDS011;4354;49.832;10.746;2023-02-26T07:51:02;5.27;;;1.27;;
8632;SDS011;4354;49.832;10.746;2023-02-26T07:53:29;3.53;;;1.47;;
8632;SDS011;4354;49.832;10.746;2023-02-26T07:55:56;2.37;;;1.83;;
8632;SDS011;4354;49.832;10.746;2023-02-26T07:58:23;1.30;;;1.10;;
8632;SDS011;4354;49.832;10.746;2023-02-26T08:00:49;2.30;;;1.40;;
8632;SDS011;4354;49.832;10.746;2023-02-26T08:03:18;2.57;;;1.20;;
8632;SDS011;4354;49.832;10.746;2023-02-26T08:05:45;2.23;;;1.30;;
8632;SDS011;4354;49.832;10.746;2023-02-26T08:08:12;2.80;;;1.30;;
8632;SDS011;4354;49.832;10.746;2023-02-26T08:10:39;2.00;;;1.73;;
8632;SDS011;4354;49.832;10.746;2023-02-26T08:13:08;4.30;;;2.57;;
8632;SDS011;4354;49.832;10.746;2023-02-26T08:15:35;3.20;;;2.10;;
8632;SDS011;4354;49.832;10.746;2023-02-26T08:18:02;3.33;;;2.20;;
8632;SDS011;4354;49.832;10.746;2023-02-26T08:20:29;3.10;;;2.10;;
8632;SDS011;4354;49.832;10.746;2023-02-26T08:22:57;2.50;;;1.47;;
8632;SDS011;4354;49.832;10.746;2023-02-26T08:25:24;1.90;;;1.70;;
8632;SDS011;4354;49.832;10.746;2023-02-26T08:27:50;1.63;;;1.20;;
8632;SDS011;4354;49.832;10.746;2023-02-26T08:30:17;3.50;;;1.50;;
8632;SDS011;4354;49.832;10.746;2023-02-26T08:32:44;2.80;;;1.40;;
8632;SDS011;4354;49.832;10.746;2023-02-26T08:35:11;2.23;;;1.50;;
8632;SDS011;4354;49.832;10.746;2023-02-26T08:37:38;2.70;;;1.70;;
8632;SDS011;4354;49.832;10.746;2023-02-26T08:40:05;4.10;;;1.60;;
8632;SDS011;4354;49.832;10.746;2023-02-26T08:42:33;2.00;;;1.67;;
8632;SDS011;4354;49.832;10.746;2023-02-26T08:45:00;3.07;;;1.60;;
8632;SDS011;4354;49.832;10.746;2023-02-26T08:47:27;1.90;;;1.60;;
8632;SDS011;4354;49.832;10.746;2023-02-26T08:49:54;1.20;;;1.10;;
8632;SDS011;4354;49.832;10.746;2023-02-26T08:52:22;2.50;;;1.50;;
8632;SDS011;4354;49.832;10.746;2023-02-26T08:54:49;2.60;;;2.10;;
8632;SDS011;4354;49.832;10.746;2023-02-26T08:57:16;4.77;;;3.10;;
8632;SDS011;4354;49.832;10.746;2023-02-26T08:59:42;3.17;;;2.63;;
8632;SDS011;4354;49.832;10.746;2023-02-26T09:02:10;1.20;;;1.05;;
8632;SDS011;4354;49.832;10.746;2023-02-26T09:04:37;3.25;;;2.75;;
8632;SDS011;4354;49.832;10.746;2023-02-26T09:07:04;1.92;;;1.80;;
8632;SDS011;4354;49.832;10.746;2023-02-26T09:09:31;0.98;;;0.98;;
8632;SDS011;4354;49.832;10.746;2023-02-26T09:11:57;1.03;;;0.87;;
8632;SDS011;4354;49.832;10.746;2023-02-26T09:14:24;1.17;;;1.07;;
8632;SDS011;4354;49.832;10.746;2023-02-26T09:16:51;1.50;;;1.00;;
8632;SDS011;4354;49.832;10.746;2023-02-26T09:19:18;1.00;;;0.90;;
8632;SDS011;4354;49.832;10.746;2023-02-26T09:21:45;1.53;;;1.00;;
8632;SDS011;4354;49.832;10.746;2023-02-26T09:24:13;1.73;;;1.47;;
8632;SDS011;4354;49.832;10.746;2023-02-26T09:26:40;1.00;;;1.00;;
8632;SDS011;4354;49.832;10.746;2023-02-26T09:29:07;1.10;;;1.00;;
8632;SDS011;4354;49.832;10.746;2023-02-26T09:31:33;1.13;;;1.03;;
8632;SDS011;4354;49.832;10.746;2023-02-26T09:34:00;1.13;;;1.00;;
8632;SDS011;4354;49.832;10.746;2023-02-26T09:36:27;1.77;;;1.30;;
8632;SDS011;4354;49.832;10.746;2023-02-26T09:38:56;1.60;;;1.30;;
8632;SDS011;4354;49.832;10.746;2023-02-26T09:41:25;1.97;;;1.60;;
8632;SDS011;4354;49.832;10.746;2023-02-26T09:43:58;3.03;;;2.30;;
8632;SDS011;4354;49.832;10.746;2023-02-26T09:51:53;1.47;;;1.37;;
8632;SDS011;4354;49.832;10.746;2023-02-26T09:54:24;1.30;;;1.20;;
8632;SDS011;4354;49.832;10.746;2023-02-26T09:56:55;1.73;;;1.60;;
8632;SDS011;4354;49.832;10.746;2023-02-26T09:59:25;1.67;;;1.57;;
8632;SDS011;4354;49.832;10.746;2023-02-26T10:04:49;1.83;;;1.70;;
8632;SDS011;4354;49.832;10.746;2023-02-26T10:10:18;2.07;;;1.83;;
8632;SDS011;4354;49.832;10.746;2023-02-26T10:12:51;2.27;;;2.00;;
8632;SDS011;4354;49.832;10.746;2023-02-26T10:15:22;3.13;;;1.70;;
8632;SDS011;4354;49.832;10.746;2023-02-26T10:20:48;2.07;;;1.60;;
8632;SDS011;4354;49.832;10.746;2023-02-26T10:23:49;1.70;;;1.50;;
8632;SDS011;4354;49.832;10.746;2023-02-26T10:26:22;1.40;;;1.20;;
8632;SDS011;4354;49.832;10.746;2023-02-26T10:29:23;1.70;;;1.60;;
8632;SDS011;4354;49.832;10.746;2023-02-26T10:34:46;1.80;;;1.60;;
8632;SDS011;4354;49.832;10.746;2023-02-26T10:40:32;1.60;;;1.50;;
8632;SDS011;4354;49.832;10.746;2023-02-26T10:48:33;1.17;;;1.07;;
8632;SDS011;4354;49.832;10.746;2023-02-26T10:51:12;1.00;;;0.93;;
8632;SDS011;4354;49.832;10.746;2023-02-26T10:53:46;2.63;;;1.30;;
8632;SDS011;4354;49.832;10.746;2023-02-26T10:56:23;1.50;;;1.40;;
8632;SDS011;4354;49.832;10.746;2023-02-26T10:58:53;1.77;;;1.40;;
8632;SDS011;4354;49.832;10.746;2023-02-26T11:01:21;1.40;;;1.30;;
8632;SDS011;4354;49.832;10.746;2023-02-26T11:03:53;2.40;;;1.10;;
8632;SDS011;4354;49.832;10.746;2023-02-26T11:06:23;1.77;;;1.40;;
8632;SDS011;4354;49.832;10.746;2023-02-26T11:08:55;2.10;;;1.40;;
8632;SDS011;4354;49.832;10.746;2023-02-26T11:11:46;4.40;;;1.97;;
8632;SDS011;4354;49.832;10.746;2023-02-26T11:14:13;2.60;;;1.97;;
8632;SDS011;4354;49.832;10.746;2023-02-26T11:16:52;2.77;;;2.30;;
8632;SDS011;4354;49.832;10.746;2023-02-26T11:19:25;2.70;;;1.80;;
8632;SDS011;4354;49.832;10.746;2023-02-26T11:22:14;2.60;;;1.90;;
8632;SDS011;4354;49.832;10.746;2023-02-26T11:24:45;2.67;;;2.10;;
8632;SDS011;4354;49.832;10.746;2023-02-26T11:27:15;4.13;;;2.77;;
8632;SDS011;4354;49.832;10.746;2023-02-26T11:29:48;4.40;;;3.50;;
8632;SDS011;4354;49.832;10.746;2023-02-26T11:32:21;1.77;;;1.10;;
8632;SDS011;4354;49.832;10.746;2023-02-26T11:34:53;1.93;;;1.63;;
8632;SDS011;4354;49.832;10.746;2023-02-26T11:37:26;1.40;;;1.30;;
8632;SDS011;4354;49.832;10.746;2023-02-26T11:40:05;2.43;;;1.50;;
8632;SDS011;4354;49.832;10.746;2023-02-26T11:42:53;2.27;;;1.50;;
8632;SDS011;4354;49.832;10.746;2023-02-26T11:45:24;1.80;;;1.57;;
8632;SDS011;4354;49.832;10.746;2023-02-26T11:50:44;1.80;;;1.43;;
8632;SDS011;4354;49.832;10.746;2023-02-26T11:53:15;1.50;;;1.27;;
8632;SDS011;4354;49.832;10.746;2023-02-26T11:55:45;2.00;;;1.60;;
8632;SDS011;4354;49.832;10.746;2023-02-26T11:58:21;2.10;;;1.10;;
8632;SDS011;4354;49.832;10.746;2023-02-26T12:00:52;1.40;;;1.10;;
8632;SDS011;4354;49.832;10.746;2023-02-26T12:03:23;1.67;;;1.20;;
8632;SDS011;4354;49.832;10.746;2023-02-26T12:05:54;1.63;;;1.30;;
8632;SDS011;4354;49.832;10.746;2023-02-26T12:08:29;2.07;;;1.13;;
8632;SDS011;4354;49.832;10.746;2023-02-26T12:17:01;1.93;;;0.90;;
8632;SDS011;4354;49.832;10.746;2023-02-26T12:19:45;1.60;;;1.10;;
8632;SDS011;4354;49.832;10.746;2023-02-26T12:22:44;2.70;;;1.10;;
8632;SDS011;4354;49.832;10.746;2023-02-26T12:25:22;0.80;;;0.80;;
8632;SDS011;4354;49.832;10.746;2023-02-26T12:30:57;1.67;;;1.50;;
8632;SDS011;4354;49.832;10.746;2023-02-26T12:33:47;2.00;;;1.20;;
8632;SDS011;4354;49.832;10.746;2023-02-26T12:47:49;0.93;;;0.73;;
8632;SDS011;4354;49.832;10.746;2023-02-26T12:50:22;1.17;;;0.77;;
8632;SDS011;4354;49.832;10.746;2023-02-26T12:58:37;2.13;;;1.23;;
8632;SDS011;4354;49.832;10.746;2023-02-26T13:10:14;4.07;;;1.17;;
8632;SDS011;4354;49.832;10.746;2023-02-26T13:12:58;3.90;;;2.40;;
8632;SDS011;4354;49.832;10.746;2023-02-26T13:18:18;2.30;;;1.20;;
8632;SDS011;4354;49.832;10.746;2023-02-26T13:21:14;0.87;;;0.77;;
8632;SDS011;4354;49.832;10.746;2023-02-26T13:23:54;2.70;;;1.20;;
8632;SDS011;4354;49.832;10.746;2023-02-26T13:26:30;1.70;;;0.97;;
8632;SDS011;4354;49.832;10.746;2023-02-26T13:31:34;1.37;;;0.90;;
8632;SDS011;4354;49.832;10.746;2023-02-26T13:34:17;3.67;;;0.90;;
8632;SDS011;4354;49.832;10.746;2023-02-26T13:36:56;2.13;;;0.70;;
8632;SDS011;4354;49.832;10.746;2023-02-26T13:39:32;2.63;;;1.00;;
8632;SDS011;4354;49.832;10.746;2023-02-26T13:44:54;1.43;;;0.77;;
8632;SDS011;4354;49.832;10.746;2023-02-26T13:52:32;1.60;;;1.20;;
8632;SDS011;4354;49.832;10.746;2023-02-26T13:55:02;2.60;;;1.00;;
8632;SDS011;4354;49.832;10.746;2023-02-26T13:57:52;1.17;;;1.03;;
8632;SDS011;4354;49.832;10.746;2023-02-26T14:00:26;2.20;;;0.90;;
8632;SDS011;4354;49.832;10.746;2023-02-26T14:03:10;2.03;;;1.03;;
8632;SDS011;4354;49.832;10.746;2023-02-26T14:10:59;0.87;;;0.63;;
8632;SDS011;4354;49.832;10.746;2023-02-26T14:13:34;0.93;;;0.73;;
8632;SDS011;4354;49.832;10.746;2023-02-26T14:16:21;1.33;;;0.80;;
8632;SDS011;4354;49.832;10.746;2023-02-26T14:18:50;1.90;;;0.67;;
8632;SDS011;4354;49.832;10.746;2023-02-26T14:23:57;1.47;;;0.80;;
8632;SDS011;4354;49.832;10.746;2023-02-26T14:26:26;1.60;;;1.00;;
8632;SDS011;4354;49.832;10.746;2023-02-26T14:29:06;1.17;;;0.63;;
8632;SDS011;4354;49.832;10.746;2023-02-26T14:34:23;1.47;;;0.80;;
8632;SDS011;4354;49.832;10.746;2023-02-26T14:36:53;2.33;;;1.10;;
8632;SDS011;4354;49.832;10.746;2023-02-26T14:39:35;1.30;;;0.70;;
8632;SDS011;4354;49.832;10.746;2023-02-26T14:42:10;0.70;;;0.60;;
8632;SDS011;4354;49.832;10.746;2023-02-26T14:44:43;1.13;;;0.53;;
8632;SDS011;4354;49.832;10.746;2023-02-26T14:47:13;4.03;;;0.90;;
8632;SDS011;4354;49.832;10.746;2023-02-26T14:49:43;1.57;;;0.97;;
8632;SDS011;4354;49.832;10.746;2023-02-26T14:57:52;0.67;;;0.60;;
8632;SDS011;4354;49.832;10.746;2023-02-26T15:03:28;2.30;;;1.23;;
8632;SDS011;4354;49.832;10.746;2023-02-26T15:08:55;1.37;;;0.70;;
8632;SDS011;4354;49.832;10.746;2023-02-26T15:11:39;0.90;;;0.70;;
8632;SDS011;4354;49.832;10.746;2023-02-26T15:19:48;1.20;;;0.87;;
8632;SDS011;4354;49.832;10.746;2023-02-26T15:24:48;0.83;;;0.80;;
8632;SDS011;4354;49.832;10.746;2023-02-26T15:27:16;1.47;;;0.80;;
8632;SDS011;4354;49.832;10.746;2023-02-26T15:29:45;1.20;;;0.70;;
8632;SDS011;4354;49.832;10.746;2023-02-26T15:34:58;3.23;;;0.90;;
8632;SDS011;4354;49.832;10.746;2023-02-26T15:37:27;2.80;;;0.73;;
8632;SDS011;4354;49.832;10.746;2023-02-26T15:39:59;2.10;;;0.60;;
8632;SDS011;4354;49.832;10.746;2023-02-26T15:42:30;1.07;;;0.70;;
8632;SDS011;4354;49.832;10.746;2023-02-26T15:45:03;0.70;;;0.50;;
8632;SDS011;4354;49.832;10.746;2023-02-26T15:47:54;1.40;;;0.53;;
8632;SDS011;4354;49.832;10.746;2023-02-26T15:50:24;1.27;;;0.80;;
8632;SDS011;4354;49.832;10.746;2023-02-26T15:52:55;1.03;;;0.73;;
8632;SDS011;4354;49.832;10.746;2023-02-26T15:55:25;1.07;;;0.80;;
8632;SDS011;4354;49.832;10.746;2023-02-26T15:57:54;2.20;;;1.30;;
8632;SDS011;4354;49.832;10.746;2023-02-26T16:00:21;0.80;;;0.73;;
8632;SDS011;4354;49.832;10.746;2023-02-26T16:02:54;2.10;;;1.17;;
8632;SDS011;4354;49.832;10.746;2023-02-26T16:05:24;1.10;;;0.80;;
8632;SDS011;4354;49.832;10.746;2023-02-26T16:07:51;1.47;;;0.90;;
8632;SDS011;4354;49.832;10.746;2023-02-26T16:10:34;3.37;;;1.00;;
8632;SDS011;4354;49.832;10.746;2023-02-26T16:13:06;1.53;;;0.90;;
8632;SDS011;4354;49.832;10.746;2023-02-26T16:15:40;1.60;;;0.90;;
8632;SDS011;4354;49.832;10.746;2023-02-26T16:18:14;2.97;;;1.67;;
8632;SDS011;4354;49.832;10.746;2023-02-26T16:20:44;1.23;;;0.80;;
8632;SDS011;4354;49.832;10.746;2023-02-26T16:23:15;1.43;;;0.77;;
8632;SDS011;4354;49.832;10.746;2023-02-26T16:28:31;2.00;;;0.87;;
8632;SDS011;4354;49.832;10.746;2023-02-26T16:31:14;1.80;;;0.90;;
8632;SDS011;4354;49.832;10.746;2023-02-26T16:33:52;1.60;;;1.20;;
8632;SDS011;4354;49.832;10.746;2023-02-26T16:36:25;2.10;;;1.10;;
8632;SDS011;4354;49.832;10.746;2023-02-26T16:38:57;0.93;;;0.73;;
8632;SDS011;4354;49.832;10.746;2023-02-26T16:41:27;4.17;;;1.60;;
8632;SDS011;4354;49.832;10.746;2023-02-26T16:43:57;2.63;;;1.10;;
8632;SDS011;4354;49.832;10.746;2023-02-26T16:46:39;2.50;;;1.13;;
8632;SDS011;4354;49.832;10.746;2023-02-26T16:49:10;3.00;;;1.60;;
8632;SDS011;4354;49.832;10.746;2023-02-26T16:51:45;3.40;;;1.40;;
8632;SDS011;4354;49.832;10.746;2023-02-26T16:54:16;2.73;;;1.60;;
8632;SDS011;4354;49.832;10.746;2023-02-26T16:56:47;3.40;;;1.90;;
8632;SDS011;4354;49.832;10.746;2023-02-26T16:59:24;3.77;;;1.30;;
8632;SDS011;4354;49.832;10.746;2023-02-26T17:01:52;1.53;;;1.43;;
8632;SDS011;4354;49.832;10.746;2023-02-26T17:04:27;2.60;;;1.27;;
8632;SDS011;4354;49.832;10.746;2023-02-26T17:06:57;1.67;;;0.87;;
8632;SDS011;4354;49.832;10.746;2023-02-26T17:12:16;1.37;;;0.70;;
8632;SDS011;4354;49.832;10.746;2023-02-26T17:14:56;2.47;;;0.87;;
8632;SDS011;4354;49.832;10.746;2023-02-26T17:17:26;1.60;;;1.03;;
8632;SDS011;4354;49.832;10.746;2023-02-26T17:19:53;1.60;;;1.10;;
8632;SDS011;4354;49.832;10.746;2023-02-26T17:22:26;3.23;;;0.90;;
8632;SDS011;4354;49.832;10.746;2023-02-26T17:24:54;1.03;;;0.90;;
8632;SDS011;4354;49.832;10.746;2023-02-26T17:27:28;1.00;;;0.90;;
8632;SDS011;4354;49.832;10.746;2023-02-26T17:29:58;1.53;;;1.10;;
8632;SDS011;4354;49.832;10.746;2023-02-26T17:32:27;1.60;;;1.00;;
8632;SDS011;4354;49.832;10.746;2023-02-26T17:34:56;2.93;;;1.00;;
8632;SDS011;4354;49.832;10.746;2023-02-26T17:37:24;1.63;;;1.10;;
8632;SDS011;4354;49.832;10.746;2023-02-26T17:39:56;1.60;;;1.10;;
8632;SDS011;4354;49.832;10.746;2023-02-26T17:42:24;0.93;;;0.77;;
8632;SDS011;4354;49.832;10.746;2023-02-26T17:44:51;2.37;;;0.90;;
8632;SDS011;4354;49.832;10.746;2023-02-26T17:47:21;2.70;;;0.90;;
8632;SDS011;4354;49.832;10.746;2023-02-26T17:49:49;2.57;;;1.03;;
8632;SDS011;4354;49.832;10.746;2023-02-26T17:52:16;2.60;;;1.00;;